Magnolia — WDB7135 — position and weather

sailwx.info

Track history (hours):
 
Tides and Currents Weather Stations Pressure Air Temp Water Temp Dewpoint Dewpoint Depression Visibility Wind Speed Wind Dir Waves Ship Positions

Magnolia

Owner: Magnolia Marine Transport Co, Vicksburg, MS. More information available from US FCC via Universal Licensing System and Coast Guard Vessel Documentation Center.

Last reported at 2015-May-21 07:06 UTC. Time now 2015-May-29 02:16 UTC.
Position N 30°45' W 091°24'.

Length 33 m; draft 2.7 m.

Type: Towing. MMSI: 366936980.

Date/timePositionNaut miles runAvg speedWind from/ knotsBaromVisibWave heightAir tempDewpointWater temp
2015-May-21 07:06N 30°45' W 091°24'8 4.5
2015-May-21 05:25N 30°39' W 091°19'3 3.5
2015-May-21 04:29N 30°36' W 091°19'0 0.5
2015-May-21 03:33N 30°36' W 091°19'4 4.3
2015-May-21 02:33N 30°34' W 091°15'3 3.0
2015-May-21 01:34N 30°31' W 091°17'3 3.2
2015-May-21 00:33N 30°31' W 091°13'5 4.6
2015-May-20 23:33N 30°27' W 091°12'5 5.0
2015-May-20 22:33N 30°22' W 091°14'5 3.5
2015-May-20 21:10N 30°20' W 091°09'2 3.1
2015-May-20 20:27N 30°19' W 091°11'  
2015-May-17 05:15N 30°21' W 091°11'4 4.9
2015-May-17 04:28N 30°24' W 091°12'7 7.4
2015-May-17 03:33N 30°31' W 091°12'2 2.1
2015-May-17 02:33N 30°32' W 091°15'6 6.1
2015-May-17 01:33N 30°38' W 091°17'9 8.3
2015-May-17 00:28N 30°45' W 091°23'  
Track history (hours):
 
Tides and Currents Weather Stations Pressure Air Temp Water Temp Dewpoint Dewpoint Depression Visibility Wind Speed Wind Dir Waves Ship Positions

Magnolia

Owner: Magnolia Marine Transport Co, Vicksburg, MS. More information available from US FCC via Universal Licensing System and Coast Guard Vessel Documentation Center.

Last reported at 2015-May-21 07:06 UTC. Time now 2015-May-29 02:16 UTC.
Position N 30°45' W 091°24'.

Length 33 m; draft 2.7 m.

Type: Towing. MMSI: 366936980.

Date/timePositionNaut miles runAvg speedWind from/ knotsBaromVisibWave heightAir tempDewpointWater temp
2015-May-21 07:06N 30°45' W 091°24'8 4.5
2015-May-21 05:25N 30°39' W 091°19'3 3.5
2015-May-21 04:29N 30°36' W 091°19'0 0.5
2015-May-21 03:33N 30°36' W 091°19'4 4.3
2015-May-21 02:33N 30°34' W 091°15'3 3.0
2015-May-21 01:34N 30°31' W 091°17'3 3.2
2015-May-21 00:33N 30°31' W 091°13'5 4.6
2015-May-20 23:33N 30°27' W 091°12'5 5.0
2015-May-20 22:33N 30°22' W 091°14'5 3.5
2015-May-20 21:10N 30°20' W 091°09'2 3.1
2015-May-20 20:27N 30°19' W 091°11'  
2015-May-17 05:15N 30°21' W 091°11'4 4.9
2015-May-17 04:28N 30°24' W 091°12'7 7.4
2015-May-17 03:33N 30°31' W 091°12'2 2.1
2015-May-17 02:33N 30°32' W 091°15'6 6.1
2015-May-17 01:33N 30°38' W 091°17'9 8.3
2015-May-17 00:28N 30°45' W 091°23'  

Dump ship's entire track history